Time;durP1;ratioP1;P1;durP2;ratioP2;P2;SDS_P1;SDS_P2;PMS_P1;PMS_P2;Temp;Humidity;BMP_temperature;BMP_pressure;BME280_temperature;BME280_humidity;BME280_pressure;Samples;Min_cycle;Max_cycle;Signal;HPM_P1;HPM_P2
2024/02/22 00:02:27;;;;;;;0.95;0.85;;;8.40;99.90;;;;;;4967615;28;20031;-86
2024/02/22 00:04:53;;;;;;;0.60;0.55;;;8.40;99.90;;;;;;4951828;28;20031;-86
2024/02/22 00:07:22;;;;;;;0.75;0.65;;;8.30;99.90;;;;;;4936439;28;20520;-86
2024/02/22 00:09:48;;;;;;;0.70;0.55;;;8.40;99.90;;;;;;4934979;29;20039;-87
2024/02/22 00:12:13;;;;;;;0.98;0.50;;;8.40;99.90;;;;;;4935254;28;20058;-86
2024/02/22 00:14:40;;;;;;;2.03;0.75;;;8.40;99.90;;;;;;4967946;28;20035;-87
2024/02/22 00:17:06;;;;;;;0.70;0.70;;;8.60;99.90;;;;;;4936763;28;20042;-86
2024/02/22 00:19:31;;;;;;;0.73;0.70;;;8.50;99.90;;;;;;4947946;28;20035;-87
2024/02/22 00:21:57;;;;;;;0.85;0.50;;;8.40;99.90;;;;;;4934601;28;21464;-86
2024/02/22 00:24:23;;;;;;;1.10;0.70;;;8.40;99.90;;;;;;4963336;28;20094;-86
2024/02/22 00:26:49;;;;;;;2.25;0.88;;;8.50;99.90;;;;;;4963030;28;20126;-86
2024/02/22 00:29:15;;;;;;;1.05;0.60;;;8.50;99.90;;;;;;4949987;28;20091;-87
2024/02/22 00:31:40;;;;;;;1.42;0.95;;;8.50;99.90;;;;;;4933983;28;20039;-87
2024/02/22 00:34:06;;;;;;;0.98;0.75;;;8.50;99.90;;;;;;4936206;29;20039;-87
2024/02/22 00:36:43;;;;;;;0.90;0.68;;;8.60;99.90;;;;;;4947110;28;20054;-87
2024/02/22 00:39:13;;;;;;;0.82;0.55;;;8.60;99.90;;;;;;4930889;28;21992;-87
2024/02/22 00:41:39;;;;;;;0.50;0.50;;;8.50;99.90;;;;;;4933534;28;20094;-87
2024/02/22 00:44:07;;;;;;;1.48;1.10;;;8.60;99.90;;;;;;4924684;29;20039;-86
2024/02/22 00:46:33;;;;;;;0.40;0.35;;;8.60;99.90;;;;;;4939869;28;20381;-87
2024/02/22 00:48:58;;;;;;;0.43;0.43;;;8.60;99.90;;;;;;4936583;28;20043;-87
2024/02/22 00:51:24;;;;;;;1.45;0.20;;;8.60;99.90;;;;;;4938293;28;20134;-86
2024/02/22 00:53:49;;;;;;;0.95;0.82;;;8.60;99.90;;;;;;4935434;28;20064;-86
2024/02/22 00:56:15;;;;;;;0.45;0.45;;;8.60;99.90;;;;;;4935236;28;20028;-87
2024/02/22 00:58:42;;;;;;;1.60;0.77;;;8.60;99.90;;;;;;4937117;28;20118;-87
2024/02/22 01:01:09;;;;;;;1.50;1.00;;;8.70;99.90;;;;;;4953992;28;20031;-87
2024/02/22 01:03:34;;;;;;;1.00;0.90;;;8.60;99.90;;;;;;4936315;29;20043;-88
2024/02/22 01:06:00;;;;;;;2.00;0.80;;;8.60;99.90;;;;;;4951847;28;20051;-87
2024/02/22 01:08:25;;;;;;;2.38;0.55;;;8.60;99.90;;;;;;4946776;28;20054;-87
2024/02/22 01:10:51;;;;;;;0.20;0.20;;;8.60;99.90;;;;;;4938325;28;20515;-86
2024/02/22 01:13:16;;;;;;;1.27;0.50;;;8.60;99.90;;;;;;4936077;28;20043;-87
2024/02/22 01:15:42;;;;;;;2.05;0.60;;;8.70;99.90;;;;;;4935003;28;20062;-86
2024/02/22 01:18:08;;;;;;;1.17;1.08;;;8.70;99.90;;;;;;4935054;29;20461;-87
2024/02/22 01:20:33;;;;;;;1.20;0.70;;;8.70;99.90;;;;;;4948400;29;20050;-87
2024/02/22 01:23:06;;;;;;;1.27;0.75;;;8.70;99.90;;;;;;4952631;28;20039;-87
2024/02/22 01:25:31;;;;;;;1.50;1.00;;;8.70;99.90;;;;;;4949957;28;20075;-86
2024/02/22 01:27:57;;;;;;;1.73;0.73;;;8.70;99.90;;;;;;4948192;28;20066;-87
2024/02/22 01:30:22;;;;;;;1.73;0.95;;;8.70;99.90;;;;;;4946774;28;20039;-87
2024/02/22 01:32:48;;;;;;;1.15;0.65;;;8.70;99.90;;;;;;4949598;29;20553;-87
2024/02/22 01:35:14;;;;;;;1.45;1.08;;;8.80;99.90;;;;;;4953283;28;20057;-86
2024/02/22 01:37:41;;;;;;;0.82;0.77;;;8.80;99.90;;;;;;4935431;28;20036;-83
2024/02/22 01:40:11;;;;;;;2.78;0.80;;;8.70;99.90;;;;;;4944612;29;20110;-83
2024/02/22 01:42:37;;;;;;;2.50;1.65;;;8.70;99.90;;;;;;4944870;29;20119;-83
2024/02/22 01:45:04;;;;;;;0.85;0.60;;;8.80;99.90;;;;;;4928933;28;20087;-83
2024/02/22 01:47:30;;;;;;;1.40;1.30;;;8.80;99.90;;;;;;4946955;28;20102;-82
2024/02/22 01:49:56;;;;;;;4.38;1.63;;;8.80;99.90;;;;;;4926811;29;20099;-83
2024/02/22 01:52:24;;;;;;;1.48;1.05;;;8.80;99.90;;;;;;4946680;28;20091;-83
2024/02/22 01:54:50;;;;;;;1.75;0.82;;;8.80;99.90;;;;;;4916009;28;20046;-83
2024/02/22 01:57:15;;;;;;;0.90;0.75;;;8.80;99.90;;;;;;4932508;28;20031;-83
2024/02/22 01:59:41;;;;;;;1.17;1.02;;;8.90;99.90;;;;;;4931003;28;20033;-84
2024/02/22 02:02:07;;;;;;;3.90;1.42;;;8.80;99.90;;;;;;4932085;29;20019;-83
2024/02/22 02:04:32;;;;;;;1.38;0.93;;;8.80;99.90;;;;;;4947391;28;20035;-82
2024/02/22 02:06:59;;;;;;;3.20;1.20;;;8.80;99.90;;;;;;4916556;28;20051;-83
2024/02/22 02:09:24;;;;;;;1.50;1.40;;;8.80;99.90;;;;;;4929505;28;20525;-83
2024/02/22 02:11:50;;;;;;;2.10;0.82;;;8.80;99.90;;;;;;4943298;28;20047;-83
2024/02/22 02:14:16;;;;;;;1.75;1.60;;;8.80;99.90;;;;;;4930919;29;20035;-84
2024/02/22 02:16:41;;;;;;;0.95;0.60;;;8.90;99.90;;;;;;4929957;28;20047;-82
2024/02/22 02:19:11;;;;;;;2.97;1.83;;;8.80;99.90;;;;;;4931558;29;20039;-83
2024/02/22 02:21:42;;;;;;;1.42;0.68;;;8.90;99.90;;;;;;4951040;28;20517;-83
2024/02/22 02:24:19;;;;;;;1.52;1.13;;;8.90;99.90;;;;;;4929257;29;20031;-82
2024/02/22 02:26:45;;;;;;;0.82;0.77;;;8.90;99.90;;;;;;4931459;28;20127;-82
2024/02/22 02:29:11;;;;;;;1.08;0.63;;;8.90;99.90;;;;;;4915705;28;20404;-82
2024/02/22 02:31:37;;;;;;;1.45;1.35;;;8.90;99.90;;;;;;4944909;28;20450;-82
2024/02/22 02:34:05;;;;;;;2.58;1.42;;;8.90;99.90;;;;;;4930482;28;20035;-82
2024/02/22 02:36:31;;;;;;;2.30;1.70;;;8.90;99.90;;;;;;4908501;28;20392;-82
2024/02/22 02:38:56;;;;;;;2.20;1.60;;;9.00;99.90;;;;;;4915413;28;20071;-83
2024/02/22 02:41:22;;;;;;;1.38;0.95;;;9.00;99.90;;;;;;4927550;28;20110;-82
2024/02/22 02:43:48;;;;;;;2.35;0.90;;;8.90;99.90;;;;;;4943881;28;20066;-82
2024/02/22 02:46:13;;;;;;;1.52;1.38;;;8.90;99.90;;;;;;4930697;28;20098;-83
2024/02/22 02:48:39;;;;;;;1.52;0.88;;;8.90;99.90;;;;;;4949565;28;20053;-85
2024/02/22 02:51:05;;;;;;;1.20;0.90;;;8.90;99.90;;;;;;4937222;28;20059;-86
2024/02/22 02:53:30;;;;;;;1.38;1.15;;;8.90;99.90;;;;;;4937124;28;20043;-85
2024/02/22 02:55:56;;;;;;;0.57;0.45;;;9.00;99.90;;;;;;4937039;28;20126;-86
2024/02/22 02:58:21;;;;;;;1.20;1.10;;;8.90;99.90;;;;;;4937227;29;20088;-87
2024/02/22 03:00:47;;;;;;;1.33;1.00;;;9.00;99.90;;;;;;4939375;28;20409;-86
2024/02/22 03:03:12;;;;;;;0.85;0.60;;;9.00;99.90;;;;;;4939366;28;20031;-85
2024/02/22 03:05:39;;;;;;;1.98;1.17;;;9.00;99.90;;;;;;4953744;28;20047;-87
2024/02/22 03:08:05;;;;;;;1.80;0.90;;;9.00;99.90;;;;;;4937430;28;20152;-87
2024/02/22 03:10:31;;;;;;;2.00;1.60;;;9.00;99.90;;;;;;4939522;28;20039;-87
2024/02/22 03:12:56;;;;;;;2.22;1.25;;;9.10;99.90;;;;;;4968510;28;20050;-87
2024/02/22 03:15:26;;;;;;;1.65;1.40;;;9.00;99.90;;;;;;4950052;28;20448;-87
2024/02/22 03:17:52;;;;;;;1.17;0.82;;;9.00;99.90;;;;;;4936597;28;20055;-86
2024/02/22 03:20:17;;;;;;;1.20;1.00;;;9.00;99.90;;;;;;4934245;29;20035;-87
2024/02/22 03:22:43;;;;;;;1.83;1.17;;;9.10;99.90;;;;;;4965892;28;20035;-87
2024/02/22 03:25:09;;;;;;;2.95;1.13;;;9.00;99.90;;;;;;4964490;28;20016;-87
2024/02/22 03:27:35;;;;;;;1.75;1.33;;;9.00;99.90;;;;;;4935775;28;20039;-88
2024/02/22 03:30:03;;;;;;;1.52;0.93;;;9.00;99.90;;;;;;4919319;28;20039;-84
2024/02/22 03:32:29;;;;;;;1.20;0.88;;;9.10;99.90;;;;;;4932572;28;20520;-85
2024/02/22 03:34:54;;;;;;;0.82;0.45;;;9.10;99.90;;;;;;4935023;29;20028;-85
2024/02/22 03:37:20;;;;;;;1.08;0.88;;;9.10;99.90;;;;;;4949647;28;20396;-87
2024/02/22 03:39:49;;;;;;;2.00;1.35;;;9.20;99.90;;;;;;4950505;29;20039;-85
2024/02/22 03:42:19;;;;;;;2.65;1.23;;;9.10;99.90;;;;;;4950858;28;20409;-87
2024/02/22 03:44:44;;;;;;;1.00;0.60;;;9.00;99.90;;;;;;4936741;28;20070;-86
2024/02/22 03:47:11;;;;;;;1.17;0.82;;;9.10;99.90;;;;;;4936197;29;20101;-87
2024/02/22 03:49:37;;;;;;;1.48;1.30;;;9.10;99.90;;;;;;4936004;28;20044;-88
2024/02/22 03:52:02;;;;;;;1.33;0.77;;;9.10;99.90;;;;;;4935809;28;20047;-86
2024/02/22 03:54:28;;;;;;;1.58;1.20;;;9.10;99.90;;;;;;4918128;28;20046;-86
2024/02/22 03:56:54;;;;;;;1.63;1.20;;;9.10;99.90;;;;;;4915035;28;20039;-86
2024/02/22 03:59:19;;;;;;;0.82;0.80;;;9.10;99.90;;;;;;4917041;28;20035;-86
2024/02/22 04:01:49;;;;;;;0.93;0.90;;;9.10;99.90;;;;;;4934577;28;20082;-85
2024/02/22 04:04:15;;;;;;;2.47;0.88;;;9.10;99.90;;;;;;4935093;28;20141;-87
2024/02/22 04:06:41;;;;;;;1.33;1.23;;;9.20;99.90;;;;;;4922086;29;20035;-86
2024/02/22 04:09:10;;;;;;;5.03;1.23;;;9.10;99.90;;;;;;4923898;29;20066;-86
2024/02/22 04:11:36;;;;;;;1.98;1.50;;;9.20;99.90;;;;;;4938402;28;20051;-87
2024/02/22 04:14:01;;;;;;;1.58;1.48;;;9.00;99.90;;;;;;4933917;28;20066;-86
2024/02/22 04:16:27;;;;;;;1.95;1.30;;;9.10;99.90;;;;;;4943044;28;20035;-90
2024/02/22 04:18:59;;;;;;;1.63;1.40;;;9.10;99.90;;;;;;4973196;28;20034;-86
2024/02/22 04:21:25;;;;;;;1.55;1.10;;;9.10;99.90;;;;;;4964690;28;20024;-87
2024/02/22 04:23:51;;;;;;;1.67;1.35;;;9.20;99.90;;;;;;4932332;28;20049;-85
2024/02/22 04:26:17;;;;;;;1.45;1.35;;;9.20;99.90;;;;;;4938434;28;20046;-85
2024/02/22 04:28:43;;;;;;;1.50;1.40;;;9.20;99.90;;;;;;4934618;29;20054;-88
2024/02/22 04:31:11;;;;;;;5.45;1.50;;;9.20;99.90;;;;;;4962111;28;20079;-86
2024/02/22 04:33:40;;;;;;;2.03;1.70;;;9.20;99.90;;;;;;4946007;28;20047;-85
2024/02/22 04:36:09;;;;;;;1.60;1.50;;;9.20;99.90;;;;;;4960309;28;20127;-85
2024/02/22 04:38:45;;;;;;;1.13;1.00;;;9.20;99.90;;;;;;4908317;29;20049;-84
2024/02/22 04:41:21;;;;;;;2.17;1.90;;;9.40;99.90;;;;;;4915975;28;20039;-84
2024/02/22 04:43:50;;;;;;;1.77;1.67;;;9.20;99.90;;;;;;4937035;28;20020;-85
2024/02/22 04:46:15;;;;;;;1.73;1.63;;;9.20;99.90;;;;;;4939599;29;20098;-89
2024/02/22 04:48:41;;;;;;;2.35;2.15;;;9.20;99.90;;;;;;4922595;28;20062;-86
2024/02/22 04:51:07;;;;;;;3.22;1.55;;;9.20;99.90;;;;;;4925193;28;20054;-85
2024/02/22 04:53:36;;;;;;;2.63;2.00;;;9.10;99.90;;;;;;4919855;28;20067;-86
2024/02/22 04:56:03;;;;;;;1.98;1.77;;;9.20;99.90;;;;;;4921472;28;20037;-88
2024/02/22 04:58:29;;;;;;;1.75;1.65;;;9.20;99.90;;;;;;4961033;28;20051;-85
2024/02/22 05:00:55;;;;;;;2.17;2.03;;;9.10;99.90;;;;;;4947565;28;20058;-88
2024/02/22 05:03:23;;;;;;;1.50;1.40;;;9.20;99.90;;;;;;4976067;28;20039;-85
2024/02/22 05:06:05;;;;;;;3.38;1.92;;;9.20;99.90;;;;;;4954455;28;20486;-88
2024/02/22 05:08:38;;;;;;;1.80;1.70;;;9.20;99.90;;;;;;4983431;28;20039;-85
2024/02/22 05:11:06;;;;;;;1.92;1.67;;;9.30;99.90;;;;;;4957793;28;20039;-87
2024/02/22 05:13:32;;;;;;;2.10;1.90;;;9.20;99.90;;;;;;4921488;28;20528;-87
2024/02/22 05:15:57;;;;;;;2.97;2.00;;;9.20;99.90;;;;;;4935417;28;20031;-87
2024/02/22 05:18:23;;;;;;;2.22;2.00;;;9.30;99.90;;;;;;4936983;28;20035;-88
2024/02/22 05:20:50;;;;;;;2.83;2.55;;;9.20;99.90;;;;;;4937437;28;20035;-88
2024/02/22 05:23:15;;;;;;;2.70;1.77;;;9.20;99.90;;;;;;4939164;29;20031;-87
2024/02/22 05:25:41;;;;;;;2.80;2.47;;;9.20;99.90;;;;;;4937282;29;20031;-89
2024/02/22 05:28:08;;;;;;;2.92;2.70;;;9.20;99.90;;;;;;4932496;28;20031;-87
2024/02/22 05:30:34;;;;;;;2.15;1.83;;;9.20;99.90;;;;;;4934981;29;20125;-87
2024/02/22 05:32:59;;;;;;;3.38;3.05;;;9.20;99.90;;;;;;4940896;28;20027;-87
2024/02/22 05:35:25;;;;;;;3.17;2.90;;;9.20;99.90;;;;;;4967587;28;20035;-88
2024/02/22 05:37:51;;;;;;;2.72;2.53;;;9.20;99.90;;;;;;4925024;28;20042;-87
2024/02/22 05:40:19;;;;;;;3.42;2.75;;;9.20;99.90;;;;;;4941575;29;20043;-87
2024/02/22 05:42:46;;;;;;;3.60;3.30;;;9.20;99.90;;;;;;4940604;29;20039;-89
2024/02/22 05:45:14;;;;;;;2.67;2.47;;;9.20;99.90;;;;;;4924809;28;20036;-88
2024/02/22 05:47:40;;;;;;;2.40;1.55;;;9.20;99.90;;;;;;4928596;28;20031;-88
2024/02/22 05:50:09;;;;;;;4.22;2.13;;;9.30;99.90;;;;;;4940094;28;20042;-86
2024/02/22 05:52:35;;;;;;;3.53;3.22;;;9.30;99.90;;;;;;4923901;28;20075;-90
2024/02/22 05:55:01;;;;;;;3.47;3.17;;;9.30;99.90;;;;;;4938175;28;20047;-88
2024/02/22 05:57:28;;;;;;;3.05;2.65;;;9.30;99.90;;;;;;4957756;28;20027;-86
2024/02/22 05:59:53;;;;;;;2.60;2.00;;;9.30;99.90;;;;;;4960552;28;20028;-89
2024/02/22 06:02:32;;;;;;;;;;;;;;;;;;;;;
2024/02/22 06:05:00;;;;;;;2.92;2.63;;;9.30;99.90;;;;;;4943857;28;20099;-88
2024/02/22 06:07:26;;;;;;;4.63;4.22;;;9.20;99.90;;;;;;4961731;28;20055;-88
2024/02/22 06:09:51;;;;;;;3.55;2.47;;;9.20;99.90;;;;;;4928632;28;20143;-88
2024/02/22 06:12:17;;;;;;;2.80;2.05;;;9.30;99.90;;;;;;4943504;29;20035;-88
2024/02/22 06:14:45;;;;;;;3.90;3.45;;;9.30;99.90;;;;;;4947818;29;20039;-86
2024/02/22 06:17:11;;;;;;;1.98;1.60;;;9.30;99.90;;;;;;4950128;28;20102;-86
2024/02/22 06:19:36;;;;;;;3.60;1.73;;;9.30;99.90;;;;;;4949540;28;20078;-83
2024/02/22 06:22:02;;;;;;;3.90;2.92;;;9.30;99.90;;;;;;4928996;28;20040;-82
2024/02/22 06:24:28;;;;;;;3.15;2.85;;;9.30;99.90;;;;;;4930925;28;20040;-82
2024/02/22 06:26:53;;;;;;;2.92;2.35;;;9.30;99.90;;;;;;4915701;28;20405;-82
2024/02/22 06:29:20;;;;;;;3.42;3.05;;;9.30;99.90;;;;;;4931472;29;20031;-82
2024/02/22 06:31:46;;;;;;;4.47;3.85;;;9.30;99.90;;;;;;4931028;29;20035;-83
2024/02/22 06:34:12;;;;;;;4.60;4.20;;;9.30;99.90;;;;;;4962788;28;20114;-82
2024/02/22 06:36:37;;;;;;;4.95;3.70;;;9.30;99.90;;;;;;4932385;28;20054;-84
2024/02/22 06:39:03;;;;;;;4.05;2.83;;;9.40;99.90;;;;;;4943535;28;20034;-83
2024/02/22 06:41:30;;;;;;;3.72;2.75;;;9.30;99.90;;;;;;4955632;28;20043;-84
2024/02/22 06:43:56;;;;;;;4.70;2.45;;;9.30;99.90;;;;;;4914089;28;20031;-83
2024/02/22 06:46:24;;;;;;;4.22;3.40;;;9.30;99.90;;;;;;4942388;29;20032;-83
2024/02/22 06:48:49;;;;;;;5.03;1.95;;;9.30;99.90;;;;;;4930321;28;20181;-82
2024/02/22 06:51:15;;;;;;;3.45;3.15;;;9.20;99.90;;;;;;4916931;28;20039;-83
2024/02/22 06:53:41;;;;;;;4.43;3.80;;;9.30;99.90;;;;;;4942628;28;20103;-82
2024/02/22 06:56:07;;;;;;;4.05;3.28;;;9.30;99.90;;;;;;4930029;28;20106;-82
2024/02/22 06:58:33;;;;;;;5.18;3.03;;;9.30;99.90;;;;;;4942204;28;20043;-83
2024/02/22 07:00:58;;;;;;;3.90;3.58;;;9.20;99.90;;;;;;4928004;28;20501;-82
2024/02/22 07:03:24;;;;;;;3.55;3.00;;;9.20;99.90;;;;;;4945390;28;20035;-82
2024/02/22 07:05:50;;;;;;;5.05;2.97;;;9.30;99.90;;;;;;4926738;29;20405;-83
2024/02/22 07:08:19;;;;;;;2.60;2.35;;;9.20;99.90;;;;;;4907207;29;20167;-82
2024/02/22 07:10:44;;;;;;;3.63;2.63;;;9.20;99.90;;;;;;4930385;28;20087;-81
2024/02/22 07:13:10;;;;;;;4.05;3.17;;;9.20;99.90;;;;;;4914337;28;24665;-83
2024/02/22 07:15:35;;;;;;;4.63;2.95;;;9.30;99.90;;;;;;4944884;28;20046;-82
2024/02/22 07:18:03;;;;;;;3.60;2.97;;;9.30;99.90;;;;;;4945504;28;20358;-82
2024/02/22 07:20:31;;;;;;;4.70;3.08;;;9.30;99.90;;;;;;4930661;29;20492;-82
2024/02/22 07:22:56;;;;;;;5.40;2.83;;;9.30;99.90;;;;;;4915022;29;20027;-83
2024/02/22 07:25:22;;;;;;;3.13;2.83;;;9.30;99.90;;;;;;4929671;29;20037;-82
2024/02/22 07:27:50;;;;;;;4.15;2.88;;;9.30;99.90;;;;;;4945327;28;20485;-82
2024/02/22 07:30:18;;;;;;;3.10;2.80;;;9.40;99.90;;;;;;4929873;28;20031;-82
2024/02/22 07:32:45;;;;;;;3.00;2.70;;;9.40;99.90;;;;;;4930778;28;20031;-83
2024/02/22 07:35:10;;;;;;;2.90;2.65;;;9.40;99.90;;;;;;4913644;28;20043;-83
2024/02/22 07:37:36;;;;;;;2.92;2.45;;;9.50;99.90;;;;;;4939627;28;20095;-82
2024/02/22 07:40:02;;;;;;;2.25;2.05;;;9.50;99.90;;;;;;4941551;28;20441;-83
2024/02/22 07:42:27;;;;;;;2.47;2.28;;;9.50;99.90;;;;;;4902630;28;20054;-83
2024/02/22 07:44:53;;;;;;;3.17;2.35;;;9.60;99.90;;;;;;4930220;28;20106;-82
2024/02/22 07:47:20;;;;;;;2.35;2.08;;;9.60;99.90;;;;;;4929489;29;20086;-82
2024/02/22 07:49:45;;;;;;;1.88;1.33;;;9.70;99.90;;;;;;4930011;29;20383;-83
2024/02/22 07:52:11;;;;;;;2.70;1.77;;;9.70;99.90;;;;;;4928057;29;20067;-82
2024/02/22 07:54:38;;;;;;;5.55;1.55;;;9.80;99.90;;;;;;4945684;28;20519;-82
2024/02/22 07:57:04;;;;;;;3.30;1.50;;;9.80;99.90;;;;;;4958837;28;20031;-81
2024/02/22 07:59:30;;;;;;;1.83;1.38;;;9.80;99.90;;;;;;4957456;28;20146;-81
2024/02/22 08:01:56;;;;;;;2.80;1.17;;;9.90;99.90;;;;;;4954682;28;20109;-81
2024/02/22 08:04:23;;;;;;;2.28;1.30;;;9.90;99.90;;;;;;4927486;28;20051;-81
2024/02/22 08:06:49;;;;;;;1.83;1.45;;;9.90;99.90;;;;;;4931482;28;20123;-81
2024/02/22 08:09:15;;;;;;;1.73;1.05;;;10.00;99.90;;;;;;4941816;28;20144;-81
2024/02/22 08:11:40;;;;;;;1.10;1.00;;;10.00;99.90;;;;;;4944171;28;20035;-80
2024/02/22 08:14:06;;;;;;;1.70;1.52;;;10.10;99.90;;;;;;4929060;28;20558;-81
2024/02/22 08:16:32;;;;;;;2.70;1.02;;;10.10;99.90;;;;;;4940100;28;20107;-80
2024/02/22 08:18:57;;;;;;;1.27;1.15;;;10.20;99.90;;;;;;4928596;28;20118;-80
2024/02/22 08:21:23;;;;;;;1.15;1.00;;;10.20;99.90;;;;;;4957251;28;20031;-80
2024/02/22 08:23:55;;;;;;;1.30;1.10;;;10.10;99.90;;;;;;4957719;28;20074;-80
2024/02/22 08:26:23;;;;;;;1.40;0.90;;;10.30;99.90;;;;;;4945444;28;20047;-80
2024/02/22 08:28:49;;;;;;;1.50;1.27;;;10.30;99.90;;;;;;4913559;29;20051;-80
2024/02/22 08:31:14;;;;;;;2.83;1.33;;;10.30;99.90;;;;;;4912601;28;20039;-81
2024/02/22 08:33:41;;;;;;;1.02;0.90;;;10.30;99.90;;;;;;4928563;28;20605;-81
2024/02/22 08:36:07;;;;;;;1.05;0.80;;;10.40;99.90;;;;;;4943440;28;20031;-80
2024/02/22 08:38:33;;;;;;;2.95;0.82;;;10.40;99.90;;;;;;4955125;28;20510;-81
2024/02/22 08:40:58;;;;;;;1.40;0.80;;;10.40;99.90;;;;;;4940913;28;20122;-81
2024/02/22 08:43:24;;;;;;;3.08;0.68;;;10.40;99.90;;;;;;4928649;28;20039;-81
2024/02/22 08:45:51;;;;;;;2.30;1.10;;;10.40;99.90;;;;;;4917109;29;20046;-80
2024/02/22 08:48:16;;;;;;;2.25;0.73;;;10.50;99.90;;;;;;4927178;28;20050;-80
2024/02/22 08:50:42;;;;;;;1.48;0.90;;;10.70;99.90;;;;;;4928981;28;20060;-81
2024/02/22 08:53:07;;;;;;;1.13;1.00;;;10.50;99.90;;;;;;4929430;28;20074;-81
2024/02/22 08:55:33;;;;;;;1.42;0.73;;;10.70;99.90;;;;;;4940573;28;20470;-81
2024/02/22 08:57:58;;;;;;;7.72;0.93;;;10.60;99.90;;;;;;4929336;28;20405;-81
2024/02/22 09:00:25;;;;;;;0.60;0.60;;;10.80;99.90;;;;;;4928292;28;20031;-82
2024/02/22 09:02:53;;;;;;;2.30;0.90;;;10.70;99.90;;;;;;4927042;29;20041;-82
2024/02/22 09:05:19;;;;;;;1.40;0.90;;;10.80;99.90;;;;;;4932194;28;20039;-81
2024/02/22 09:07:46;;;;;;;1.00;0.70;;;10.80;99.90;;;;;;4933514;28;20032;-82
2024/02/22 09:10:11;;;;;;;1.10;0.90;;;10.80;99.90;;;;;;4929478;29;20051;-82
2024/02/22 09:12:40;;;;;;;0.75;0.60;;;10.80;99.90;;;;;;4963022;28;20051;-82
2024/02/22 09:15:08;;;;;;;0.95;0.85;;;10.80;99.90;;;;;;4959664;28;20508;-82
2024/02/22 09:17:33;;;;;;;1.05;0.77;;;11.00;99.90;;;;;;4951905;28;20513;-82
2024/02/22 09:19:59;;;;;;;0.77;0.77;;;11.00;99.90;;;;;;4946252;28;20039;-82
2024/02/22 09:22:24;;;;;;;0.50;0.50;;;11.00;99.90;;;;;;4945781;28;20412;-82
2024/02/22 09:24:50;;;;;;;0.98;0.70;;;11.00;99.90;;;;;;4932071;29;20778;-83
2024/02/22 09:27:15;;;;;;;2.25;0.70;;;11.10;99.90;;;;;;4933874;28;20493;-82
2024/02/22 09:29:42;;;;;;;1.73;0.82;;;11.10;99.90;;;;;;4943099;29;20040;-82
2024/02/22 09:32:08;;;;;;;1.00;0.77;;;11.10;99.90;;;;;;4932378;28;20489;-83
2024/02/22 09:34:34;;;;;;;1.17;0.68;;;11.10;99.90;;;;;;4945754;28;20039;-82
2024/02/22 09:37:01;;;;;;;4.18;0.60;;;11.10;99.90;;;;;;4916849;28;20039;-80
2024/02/22 09:39:27;;;;;;;0.95;0.70;;;11.10;99.90;;;;;;4932817;28;20047;-82
2024/02/22 09:41:53;;;;;;;1.15;0.60;;;11.00;99.90;;;;;;4931732;28;20039;-82
2024/02/22 09:44:19;;;;;;;3.30;0.60;;;11.10;99.90;;;;;;4914803;29;20031;-82
2024/02/22 09:46:48;;;;;;;0.80;0.70;;;11.10;99.90;;;;;;4928232;28;20126;-82
2024/02/22 09:49:17;;;;;;;1.20;0.60;;;11.20;99.90;;;;;;4931063;28;20032;-82
2024/02/22 09:51:45;;;;;;;1.10;0.60;;;11.20;99.90;;;;;;4947321;28;20560;-83
2024/02/22 09:54:11;;;;;;;0.80;0.80;;;11.10;99.90;;;;;;4946506;28;20027;-83
2024/02/22 09:56:43;;;;;;;0.77;0.70;;;11.10;99.90;;;;;;4931140;28;20035;-83
2024/02/22 09:59:12;;;;;;;0.60;0.60;;;11.20;99.90;;;;;;4916322;28;20516;-83
2024/02/22 10:01:39;;;;;;;2.75;0.57;;;11.20;99.90;;;;;;4944340;28;20036;-82
2024/02/22 10:04:11;;;;;;;1.48;0.85;;;11.20;99.90;;;;;;4916728;28;20052;-84
2024/02/22 10:06:38;;;;;;;1.13;0.73;;;11.20;99.90;;;;;;4931352;28;20046;-84
2024/02/22 10:09:04;;;;;;;0.70;0.65;;;11.20;99.90;;;;;;4931722;28;20653;-84
2024/02/22 10:11:30;;;;;;;1.35;0.80;;;11.30;99.90;;;;;;4914903;28;20028;-83
2024/02/22 10:13:59;;;;;;;1.67;1.02;;;11.30;99.90;;;;;;4931048;28;20023;-85
2024/02/22 10:16:25;;;;;;;2.40;1.30;;;11.30;99.90;;;;;;4961341;28;20035;-83
2024/02/22 10:18:51;;;;;;;5.93;1.63;;;11.30;99.90;;;;;;4915070;29;20054;-84
2024/02/22 10:21:17;;;;;;;3.60;1.30;;;11.40;99.90;;;;;;4916885;28;20035;-84
2024/02/22 10:23:46;;;;;;;4.93;1.42;;;11.40;99.90;;;;;;4915465;28;20043;-84
2024/02/22 10:26:12;;;;;;;4.00;1.30;;;11.40;99.90;;;;;;4944344;28;20039;-84
2024/02/22 10:28:39;;;;;;;1.63;0.75;;;11.40;99.90;;;;;;4930447;28;20670;-84
2024/02/22 10:31:06;;;;;;;1.67;0.60;;;11.50;99.90;;;;;;4936339;28;20040;-83
2024/02/22 10:33:32;;;;;;;0.90;0.57;;;11.50;99.90;;;;;;4930054;28;20395;-82
2024/02/22 10:35:59;;;;;;;0.88;0.50;;;11.40;99.90;;;;;;4915867;28;20027;-84
2024/02/22 10:38:27;;;;;;;0.50;0.40;;;11.60;99.90;;;;;;4915699;29;20114;-84
2024/02/22 10:40:53;;;;;;;0.73;0.40;;;11.60;99.90;;;;;;4931805;29;20085;-83
2024/02/22 10:43:19;;;;;;;0.55;0.40;;;11.70;99.90;;;;;;4916095;29;20102;-84
2024/02/22 10:45:45;;;;;;;1.17;0.40;;;11.80;99.90;;;;;;4961313;28;20078;-82
2024/02/22 10:48:11;;;;;;;0.20;0.20;;;11.90;99.90;;;;;;4914847;28;20095;-85
2024/02/22 10:50:37;;;;;;;0.65;0.40;;;12.00;99.90;;;;;;4959864;28;20525;-84
2024/02/22 10:53:03;;;;;;;0.82;0.38;;;12.10;99.90;;;;;;4957774;28;20052;-84
2024/02/22 10:55:29;;;;;;;0.85;0.35;;;12.10;99.90;;;;;;4941646;28;20031;-83
2024/02/22 10:57:56;;;;;;;1.55;0.30;;;12.20;99.90;;;;;;4929913;29;20082;-84
2024/02/22 11:00:22;;;;;;;0.52;0.30;;;12.30;99.90;;;;;;4927206;28;20118;-85
2024/02/22 11:02:47;;;;;;;0.30;0.30;;;12.30;99.90;;;;;;4941916;29;20114;-84
2024/02/22 11:05:13;;;;;;;0.30;0.20;;;12.40;99.90;;;;;;4939128;29;20048;-85
2024/02/22 11:07:48;;;;;;;0.65;0.45;;;12.60;99.90;;;;;;4943462;28;20039;-85
2024/02/22 11:10:14;;;;;;;0.20;0.20;;;12.70;99.90;;;;;;4914388;28;20130;-85
2024/02/22 11:12:46;;;;;;;0.20;0.10;;;12.70;99.90;;;;;;4931898;28;20103;-85
2024/02/22 11:15:12;;;;;;;0.20;0.15;;;12.80;99.90;;;;;;4931530;28;20093;-85
2024/02/22 11:17:39;;;;;;;2.65;0.30;;;12.90;99.90;;;;;;4943151;28;20050;-84
2024/02/22 11:20:08;;;;;;;1.15;0.20;;;13.00;99.90;;;;;;4916694;28;20054;-84
2024/02/22 11:22:34;;;;;;;0.10;0.10;;;13.10;99.90;;;;;;4959240;28;20543;-84
2024/02/22 11:25:06;;;;;;;0.40;0.28;;;13.10;99.90;;;;;;4941961;28;20031;-83
2024/02/22 11:27:45;;;;;;;0.35;0.25;;;13.20;99.90;;;;;;4866962;29;20608;-84
2024/02/22 11:30:37;;;;;;;1.55;0.13;;;13.30;99.90;;;;;;4893983;29;20052;-85
2024/02/22 11:33:29;;;;;;;0.40;0.30;;;13.20;99.90;;;;;;4871008;28;20089;-85
2024/02/22 11:35:57;;;;;;;0.20;0.20;;;13.30;99.90;;;;;;4882370;29;20163;-83
2024/02/22 11:38:28;;;;;;;0.64;0.40;;;13.20;99.90;;;;;;4797263;28;10001073;-84
2024/02/22 11:40:54;;;;;;;0.60;0.40;;;13.20;99.90;;;;;;4601915;28;10000396;-83
2024/02/22 11:43:26;;;;;;;0.52;0.45;;;13.20;99.90;;;;;;4943174;28;20127;-83
2024/02/22 11:46:01;;;;;;;1.35;0.28;;;13.30;99.90;;;;;;4943151;28;20031;-83
2024/02/22 11:48:27;;;;;;;0.65;0.40;;;13.40;99.90;;;;;;4908476;29;20523;-83
2024/02/22 11:50:53;;;;;;;0.30;0.30;;;13.30;99.90;;;;;;4940202;29;21012;-84
2024/02/22 11:53:19;;;;;;;2.30;0.30;;;13.40;99.90;;;;;;4904334;29;20118;-84
2024/02/22 11:55:55;;;;;;;0.63;0.20;;;13.40;99.90;;;;;;4904673;28;20520;-84
2024/02/22 11:58:27;;;;;;;0.38;0.20;;;13.50;99.90;;;;;;4931008;28;20559;-82
2024/02/22 12:00:55;;;;;;;0.50;0.40;;;13.50;99.90;;;;;;4932211;28;20035;-83
2024/02/22 12:03:21;;;;;;;0.25;0.20;;;13.80;99.90;;;;;;4909002;28;20039;-84
2024/02/22 12:05:48;;;;;;;0.45;0.38;;;14.00;99.90;;;;;;4937765;28;20173;-85
2024/02/22 12:08:15;;;;;;;0.80;0.30;;;13.80;99.90;;;;;;4910809;29;20047;-82
2024/02/22 12:10:48;;;;;;;1.13;0.20;;;14.20;99.90;;;;;;4942000;28;20047;-82
2024/02/22 12:13:13;;;;;;;0.28;0.20;;;14.20;99.90;;;;;;4945343;28;20051;-81
2024/02/22 12:15:39;;;;;;;0.20;0.20;;;14.30;99.90;;;;;;4955135;28;20070;-82
2024/02/22 12:18:06;;;;;;;2.05;0.30;;;14.50;99.90;;;;;;4958874;28;20046;-80
2024/02/22 12:20:33;;;;;;;0.28;0.25;;;14.70;99.90;;;;;;4927866;28;20488;-81
2024/02/22 12:22:58;;;;;;;0.65;0.30;;;14.80;99.90;;;;;;4946068;29;20042;-80
2024/02/22 12:25:24;;;;;;;0.68;0.30;;;14.80;99.90;;;;;;4931065;29;20027;-80
2024/02/22 12:27:53;;;;;;;0.20;0.20;;;15.10;99.90;;;;;;4942530;28;20042;-81
2024/02/22 12:30:19;;;;;;;0.10;0.10;;;15.20;99.90;;;;;;4945470;28;20780;-80
2024/02/22 12:32:50;;;;;;;0.95;0.30;;;15.30;99.90;;;;;;4958004;28;20110;-80
2024/02/22 12:35:17;;;;;;;0.85;0.32;;;15.20;99.90;;;;;;4912108;28;20043;-81
2024/02/22 12:37:43;;;;;;;1.55;0.63;;;15.30;99.90;;;;;;4928784;28;20031;-81
2024/02/22 12:40:09;;;;;;;0.45;0.35;;;15.10;99.90;;;;;;4945763;28;20103;-81
2024/02/22 12:42:35;;;;;;;0.20;0.20;;;15.20;99.90;;;;;;4948859;28;20032;-80
2024/02/22 12:45:00;;;;;;;1.55;0.30;;;15.00;99.90;;;;;;4945884;28;20576;-79
2024/02/22 12:47:26;;;;;;;0.25;0.22;;;15.00;99.90;;;;;;4933512;29;20034;-79
2024/02/22 12:49:51;;;;;;;0.60;0.20;;;14.90;99.90;;;;;;4931977;28;20047;-79
2024/02/22 12:52:17;;;;;;;0.28;0.22;;;14.90;99.90;;;;;;4930697;28;20031;-82
2024/02/22 12:54:43;;;;;;;0.40;0.30;;;15.00;99.90;;;;;;4946738;28;20043;-78